Terminal Aerodrome Forecast
Issued by NWS

Home | Current Version | Previous Version | Text Only | Print | Product List | Glossary Off
Versions: 1 2 3 4 5 6 7 8 9 10 11 12 13

000
FTUS45 KGGW 250708 AAA
TAFOLF
TAF AMD
KOLF 250708Z 2507/2606 26005KT P6SM -SHRA SCT040 OVC070
     FM251000 26004KT P6SM BKN050
     FM251800 29008KT P6SM BKN050
     FM260000 28007KT P6SM SCT200
     FM260300 VRB03KT P6SM SCT200=

USA.gov is the U.S. government's official web portal to all federal, state and local government web resources and services.